sensor_id;sensor_type;location;lat;lon;timestamp;temperature;humidity
28023;DHT22;67403;50.104;8.758;2023-02-28T00:01:44;0.10;99.90
28023;DHT22;67403;50.104;8.758;2023-02-28T00:04:11;0.00;99.90
28023;DHT22;67403;50.104;8.758;2023-02-28T00:06:38;0.00;99.90
28023;DHT22;67403;50.104;8.758;2023-02-28T00:09:05;0.00;99.90
28023;DHT22;67403;50.104;8.758;2023-02-28T00:11:32;0.00;99.90
28023;DHT22;67403;50.104;8.758;2023-02-28T00:13:59;0.00;99.90
28023;DHT22;67403;50.104;8.758;2023-02-28T00:16:26;0.00;99.90
28023;DHT22;67403;50.104;8.758;2023-02-28T00:18:54;0.00;99.90
28023;DHT22;67403;50.104;8.758;2023-02-28T00:21:21;-0.10;99.90
28023;DHT22;67403;50.104;8.758;2023-02-28T00:23:48;-0.10;99.90
28023;DHT22;67403;50.104;8.758;2023-02-28T00:26:14;-0.20;99.90
28023;DHT22;67403;50.104;8.758;2023-02-28T00:28:41;-0.20;99.90
28023;DHT22;67403;50.104;8.758;2023-02-28T00:31:08;-0.10;99.90
28023;DHT22;67403;50.104;8.758;2023-02-28T00:33:35;-0.20;99.90
28023;DHT22;67403;50.104;8.758;2023-02-28T00:36:06;-0.30;99.90
28023;DHT22;67403;50.104;8.758;2023-02-28T00:38:33;-0.30;99.90
28023;DHT22;67403;50.104;8.758;2023-02-28T00:41:00;-0.40;99.90
28023;DHT22;67403;50.104;8.758;2023-02-28T00:43:31;-0.50;99.90
28023;DHT22;67403;50.104;8.758;2023-02-28T00:45:58;-0.50;99.90
28023;DHT22;67403;50.104;8.758;2023-02-28T00:48:25;-0.50;99.90
28023;DHT22;67403;50.104;8.758;2023-02-28T00:50:51;-0.50;99.90
28023;DHT22;67403;50.104;8.758;2023-02-28T00:53:21;-0.50;99.90
28023;DHT22;67403;50.104;8.758;2023-02-28T00:55:48;-0.50;99.90
28023;DHT22;67403;50.104;8.758;2023-02-28T00:58:15;-0.50;99.90
28023;DHT22;67403;50.104;8.758;2023-02-28T01:00:42;-0.60;99.90
28023;DHT22;67403;50.104;8.758;2023-02-28T01:03:15;-0.60;99.90
28023;DHT22;67403;50.104;8.758;2023-02-28T01:05:42;-0.50;99.90
28023;DHT22;67403;50.104;8.758;2023-02-28T01:08:09;-0.60;99.90
28023;DHT22;67403;50.104;8.758;2023-02-28T01:10:37;-0.70;99.90
28023;DHT22;67403;50.104;8.758;2023-02-28T01:13:04;-0.70;99.90
28023;DHT22;67403;50.104;8.758;2023-02-28T01:15:31;-0.70;99.90
28023;DHT22;67403;50.104;8.758;2023-02-28T01:17:58;-0.70;99.90
28023;DHT22;67403;50.104;8.758;2023-02-28T01:20:25;-0.70;99.90
28023;DHT22;67403;50.104;8.758;2023-02-28T01:22:52;-0.70;99.90
28023;DHT22;67403;50.104;8.758;2023-02-28T01:25:19;-0.70;99.90
28023;DHT22;67403;50.104;8.758;2023-02-28T01:27:47;-0.70;99.90
28023;DHT22;67403;50.104;8.758;2023-02-28T01:30:14;-0.70;99.90
28023;DHT22;67403;50.104;8.758;2023-02-28T01:32:41;-0.60;99.90
28023;DHT22;67403;50.104;8.758;2023-02-28T01:35:08;-0.50;99.90
28023;DHT22;67403;50.104;8.758;2023-02-28T01:37:35;-0.60;99.90
28023;DHT22;67403;50.104;8.758;2023-02-28T01:40:02;-0.60;99.90
28023;DHT22;67403;50.104;8.758;2023-02-28T01:42:29;-0.60;99.90
28023;DHT22;67403;50.104;8.758;2023-02-28T01:45:18;-0.60;99.90
28023;DHT22;67403;50.104;8.758;2023-02-28T01:47:49;-0.80;99.90
28023;DHT22;67403;50.104;8.758;2023-02-28T01:50:19;-0.80;99.90
28023;DHT22;67403;50.104;8.758;2023-02-28T01:52:48;-0.90;99.90
28023;DHT22;67403;50.104;8.758;2023-02-28T01:55:17;-1.00;99.90
28023;DHT22;67403;50.104;8.758;2023-02-28T01:57:46;-1.10;99.90
28023;DHT22;67403;50.104;8.758;2023-02-28T02:00:18;-1.10;99.90
28023;DHT22;67403;50.104;8.758;2023-02-28T02:02:48;-1.10;99.90
28023;DHT22;67403;50.104;8.758;2023-02-28T02:05:18;-1.00;99.90
28023;DHT22;67403;50.104;8.758;2023-02-28T02:07:48;-1.00;99.90
28023;DHT22;67403;50.104;8.758;2023-02-28T02:10:18;-0.90;99.90
28023;DHT22;67403;50.104;8.758;2023-02-28T02:13:10;-1.10;99.90
28023;DHT22;67403;50.104;8.758;2023-02-28T02:15:42;-1.10;99.90
28023;DHT22;67403;50.104;8.758;2023-02-28T02:18:18;-1.00;99.90
28023;DHT22;67403;50.104;8.758;2023-02-28T02:21:12;-0.90;99.90
28023;DHT22;67403;50.104;8.758;2023-02-28T02:24:08;-1.00;99.90
28023;DHT22;67403;50.104;8.758;2023-02-28T02:27:09;-0.90;99.90
28023;DHT22;67403;50.104;8.758;2023-02-28T02:30:04;-0.90;99.90
28023;DHT22;67403;50.104;8.758;2023-02-28T02:32:53;-0.90;99.90
28023;DHT22;67403;50.104;8.758;2023-02-28T02:35:28;-1.00;99.90
28023;DHT22;67403;50.104;8.758;2023-02-28T02:37:59;-1.00;99.90
28023;DHT22;67403;50.104;8.758;2023-02-28T02:40:32;-1.00;99.90
28023;DHT22;67403;50.104;8.758;2023-02-28T02:43:02;-1.00;99.90
28023;DHT22;67403;50.104;8.758;2023-02-28T02:45:39;-1.20;99.90
28023;DHT22;67403;50.104;8.758;2023-02-28T02:48:09;-1.20;99.90
28023;DHT22;67403;50.104;8.758;2023-02-28T02:50:42;-1.30;99.90
28023;DHT22;67403;50.104;8.758;2023-02-28T02:53:10;-1.30;99.90
28023;DHT22;67403;50.104;8.758;2023-02-28T02:55:42;-1.40;99.90
28023;DHT22;67403;50.104;8.758;2023-02-28T02:58:13;-1.50;99.90
28023;DHT22;67403;50.104;8.758;2023-02-28T03:00:46;-1.60;99.90
28023;DHT22;67403;50.104;8.758;2023-02-28T03:03:16;-1.60;99.90
28023;DHT22;67403;50.104;8.758;2023-02-28T03:05:49;-1.60;99.90
28023;DHT22;67403;50.104;8.758;2023-02-28T03:08:16;-1.60;99.90
28023;DHT22;67403;50.104;8.758;2023-02-28T03:10:45;-1.70;99.90
28023;DHT22;67403;50.104;8.758;2023-02-28T03:16:35;-1.70;99.90
28023;DHT22;67403;50.104;8.758;2023-02-28T03:19:19;-1.60;99.90
28023;DHT22;67403;50.104;8.758;2023-02-28T03:21:56;-1.50;99.90
28023;DHT22;67403;50.104;8.758;2023-02-28T03:24:32;-1.50;99.90
28023;DHT22;67403;50.104;8.758;2023-02-28T03:27:06;-1.60;99.90
28023;DHT22;67403;50.104;8.758;2023-02-28T03:29:37;-1.60;99.90
28023;DHT22;67403;50.104;8.758;2023-02-28T03:32:10;-1.50;99.90
28023;DHT22;67403;50.104;8.758;2023-02-28T03:34:45;-1.60;99.90
28023;DHT22;67403;50.104;8.758;2023-02-28T03:37:18;-1.60;99.90
28023;DHT22;67403;50.104;8.758;2023-02-28T03:39:52;-1.50;99.90
28023;DHT22;67403;50.104;8.758;2023-02-28T03:42:22;-1.50;99.90
28023;DHT22;67403;50.104;8.758;2023-02-28T03:44:54;-1.50;99.90
28023;DHT22;67403;50.104;8.758;2023-02-28T03:47:26;-1.40;99.90
28023;DHT22;67403;50.104;8.758;2023-02-28T03:49:57;-1.50;99.90
28023;DHT22;67403;50.104;8.758;2023-02-28T03:52:28;-1.60;99.90
28023;DHT22;67403;50.104;8.758;2023-02-28T03:55:01;-1.60;99.90
28023;DHT22;67403;50.104;8.758;2023-02-28T03:57:36;-1.70;99.90
28023;DHT22;67403;50.104;8.758;2023-02-28T04:00:07;-1.50;99.90
28023;DHT22;67403;50.104;8.758;2023-02-28T04:02:35;-1.50;99.90
28023;DHT22;67403;50.104;8.758;2023-02-28T04:05:02;-1.60;99.90
28023;DHT22;67403;50.104;8.758;2023-02-28T04:07:31;-1.60;99.90
28023;DHT22;67403;50.104;8.758;2023-02-28T04:09:58;-1.50;99.90
28023;DHT22;67403;50.104;8.758;2023-02-28T04:12:25;-1.50;99.90
28023;DHT22;67403;50.104;8.758;2023-02-28T04:15:12;-1.60;99.90
28023;DHT22;67403;50.104;8.758;2023-02-28T04:17:59;-1.60;99.90
28023;DHT22;67403;50.104;8.758;2023-02-28T04:20:46;-1.60;99.90
28023;DHT22;67403;50.104;8.758;2023-02-28T04:23:34;-1.50;99.90
28023;DHT22;67403;50.104;8.758;2023-02-28T04:26:20;-1.40;99.90
28023;DHT22;67403;50.104;8.758;2023-02-28T04:28:47;-1.40;99.90
28023;DHT22;67403;50.104;8.758;2023-02-28T04:31:14;-1.40;99.90
28023;DHT22;67403;50.104;8.758;2023-02-28T04:33:41;-1.40;99.90
28023;DHT22;67403;50.104;8.758;2023-02-28T04:36:09;-1.30;99.90
28023;DHT22;67403;50.104;8.758;2023-02-28T04:38:37;-1.30;99.90
28023;DHT22;67403;50.104;8.758;2023-02-28T04:41:05;-1.20;99.90
28023;DHT22;67403;50.104;8.758;2023-02-28T04:43:32;-1.30;99.90
28023;DHT22;67403;50.104;8.758;2023-02-28T04:46:02;-1.20;99.90
28023;DHT22;67403;50.104;8.758;2023-02-28T04:48:31;-1.10;99.90
28023;DHT22;67403;50.104;8.758;2023-02-28T04:51:00;-1.10;99.90
28023;DHT22;67403;50.104;8.758;2023-02-28T04:53:27;-1.00;99.90
28023;DHT22;67403;50.104;8.758;2023-02-28T04:55:56;-1.10;99.90
28023;DHT22;67403;50.104;8.758;2023-02-28T04:58:23;-1.10;99.90
28023;DHT22;67403;50.104;8.758;2023-02-28T05:00:50;-1.10;99.90
28023;DHT22;67403;50.104;8.758;2023-02-28T05:03:17;-1.00;99.90
28023;DHT22;67403;50.104;8.758;2023-02-28T05:05:43;-1.00;99.90
28023;DHT22;67403;50.104;8.758;2023-02-28T05:08:10;-1.10;99.90
28023;DHT22;67403;50.104;8.758;2023-02-28T05:10:37;-1.10;99.90
28023;DHT22;67403;50.104;8.758;2023-02-28T05:13:06;-1.10;99.90
28023;DHT22;67403;50.104;8.758;2023-02-28T05:15:33;-1.20;99.90
28023;DHT22;67403;50.104;8.758;2023-02-28T05:17:59;-1.20;99.90
28023;DHT22;67403;50.104;8.758;2023-02-28T05:20:26;-1.10;99.90
28023;DHT22;67403;50.104;8.758;2023-02-28T05:22:53;-1.20;99.90
28023;DHT22;67403;50.104;8.758;2023-02-28T05:25:21;-1.20;99.90
28023;DHT22;67403;50.104;8.758;2023-02-28T05:27:48;-1.20;99.90
28023;DHT22;67403;50.104;8.758;2023-02-28T05:30:17;-1.30;99.90
28023;DHT22;67403;50.104;8.758;2023-02-28T05:32:44;-1.30;99.90
28023;DHT22;67403;50.104;8.758;2023-02-28T05:35:16;-1.20;99.90
28023;DHT22;67403;50.104;8.758;2023-02-28T05:37:43;-1.20;99.90
28023;DHT22;67403;50.104;8.758;2023-02-28T05:40:10;-1.20;99.90
28023;DHT22;67403;50.104;8.758;2023-02-28T05:42:38;-1.20;99.90
28023;DHT22;67403;50.104;8.758;2023-02-28T05:45:06;-1.20;99.90
28023;DHT22;67403;50.104;8.758;2023-02-28T05:47:35;-1.20;99.90
28023;DHT22;67403;50.104;8.758;2023-02-28T05:50:02;-1.20;99.90
28023;DHT22;67403;50.104;8.758;2023-02-28T05:52:29;-1.40;99.90
28023;DHT22;67403;50.104;8.758;2023-02-28T05:54:56;-1.30;99.90
28023;DHT22;67403;50.104;8.758;2023-02-28T05:57:24;-1.30;99.90
28023;DHT22;67403;50.104;8.758;2023-02-28T05:59:51;-1.30;99.90
28023;DHT22;67403;50.104;8.758;2023-02-28T06:02:18;-1.40;99.90
28023;DHT22;67403;50.104;8.758;2023-02-28T06:04:46;-1.40;99.90
28023;DHT22;67403;50.104;8.758;2023-02-28T06:07:13;-1.40;99.90
28023;DHT22;67403;50.104;8.758;2023-02-28T06:09:40;-1.20;99.90
28023;DHT22;67403;50.104;8.758;2023-02-28T06:12:07;-1.30;99.90
28023;DHT22;67403;50.104;8.758;2023-02-28T06:14:35;-1.40;99.90
28023;DHT22;67403;50.104;8.758;2023-02-28T06:17:06;-1.40;99.90
28023;DHT22;67403;50.104;8.758;2023-02-28T06:19:33;-1.40;99.90
28023;DHT22;67403;50.104;8.758;2023-02-28T06:22:01;-1.30;99.90
28023;DHT22;67403;50.104;8.758;2023-02-28T06:24:28;-1.30;99.90
28023;DHT22;67403;50.104;8.758;2023-02-28T06:26:56;-1.50;99.90
28023;DHT22;67403;50.104;8.758;2023-02-28T06:29:24;-1.40;99.90
28023;DHT22;67403;50.104;8.758;2023-02-28T06:31:51;-1.40;99.90
28023;DHT22;67403;50.104;8.758;2023-02-28T06:34:18;-1.50;99.90
28023;DHT22;67403;50.104;8.758;2023-02-28T06:36:45;-1.40;99.90
28023;DHT22;67403;50.104;8.758;2023-02-28T06:39:13;-1.50;99.90
28023;DHT22;67403;50.104;8.758;2023-02-28T06:41:40;-1.50;99.90
28023;DHT22;67403;50.104;8.758;2023-02-28T06:44:12;-1.40;99.90
28023;DHT22;67403;50.104;8.758;2023-02-28T06:46:39;-1.40;99.90
28023;DHT22;67403;50.104;8.758;2023-02-28T06:49:06;-1.20;99.90
28023;DHT22;67403;50.104;8.758;2023-02-28T06:51:36;-1.10;99.90
28023;DHT22;67403;50.104;8.758;2023-02-28T06:54:04;-1.10;99.90
28023;DHT22;67403;50.104;8.758;2023-02-28T06:56:32;-0.90;99.90
28023;DHT22;67403;50.104;8.758;2023-02-28T06:58:59;-0.80;99.90
28023;DHT22;67403;50.104;8.758;2023-02-28T07:01:28;-0.80;99.90
28023;DHT22;67403;50.104;8.758;2023-02-28T07:03:55;-0.70;99.90
28023;DHT22;67403;50.104;8.758;2023-02-28T07:06:22;-0.60;99.90
28023;DHT22;67403;50.104;8.758;2023-02-28T07:08:50;-0.50;99.90
28023;DHT22;67403;50.104;8.758;2023-02-28T07:11:17;-0.40;99.90
28023;DHT22;67403;50.104;8.758;2023-02-28T07:13:46;-0.30;99.90
28023;DHT22;67403;50.104;8.758;2023-02-28T07:16:13;-0.30;99.90
28023;DHT22;67403;50.104;8.758;2023-02-28T07:18:40;-0.10;99.90
28023;DHT22;67403;50.104;8.758;2023-02-28T07:21:09;-0.10;99.90
28023;DHT22;67403;50.104;8.758;2023-02-28T07:23:36;0.00;99.90
28023;DHT22;67403;50.104;8.758;2023-02-28T07:26:04;0.20;99.90
28023;DHT22;67403;50.104;8.758;2023-02-28T07:28:32;0.20;99.90
28023;DHT22;67403;50.104;8.758;2023-02-28T07:31:04;0.30;99.90
28023;DHT22;67403;50.104;8.758;2023-02-28T07:33:31;0.40;99.90
28023;DHT22;67403;50.104;8.758;2023-02-28T07:36:04;0.40;99.90
28023;DHT22;67403;50.104;8.758;2023-02-28T07:38:33;0.50;99.90
28023;DHT22;67403;50.104;8.758;2023-02-28T07:41:00;0.50;99.90
28023;DHT22;67403;50.104;8.758;2023-02-28T07:43:29;0.50;99.90
28023;DHT22;67403;50.104;8.758;2023-02-28T07:46:01;0.60;99.90
28023;DHT22;67403;50.104;8.758;2023-02-28T07:48:30;0.70;99.90
28023;DHT22;67403;50.104;8.758;2023-02-28T07:50:58;0.80;99.90
28023;DHT22;67403;50.104;8.758;2023-02-28T07:53:25;0.80;99.90
28023;DHT22;67403;50.104;8.758;2023-02-28T07:55:55;0.80;99.90
28023;DHT22;67403;50.104;8.758;2023-02-28T07:58:22;0.90;99.90
28023;DHT22;67403;50.104;8.758;2023-02-28T08:00:50;0.90;99.90
28023;DHT22;67403;50.104;8.758;2023-02-28T08:03:17;0.90;99.90
28023;DHT22;67403;50.104;8.758;2023-02-28T08:05:45;1.10;99.90
28023;DHT22;67403;50.104;8.758;2023-02-28T08:08:13;1.10;99.90
28023;DHT22;67403;50.104;8.758;2023-02-28T08:10:40;1.20;99.90
28023;DHT22;67403;50.104;8.758;2023-02-28T08:13:07;1.20;99.90
28023;DHT22;67403;50.104;8.758;2023-02-28T08:15:34;1.20;99.90
28023;DHT22;67403;50.104;8.758;2023-02-28T08:18:02;1.20;99.90
28023;DHT22;67403;50.104;8.758;2023-02-28T08:20:29;1.30;99.90
28023;DHT22;67403;50.104;8.758;2023-02-28T08:22:57;1.40;99.90
28023;DHT22;67403;50.104;8.758;2023-02-28T08:25:24;1.40;99.90
28023;DHT22;67403;50.104;8.758;2023-02-28T08:27:51;1.50;99.90
28023;DHT22;67403;50.104;8.758;2023-02-28T08:30:18;1.50;99.90
28023;DHT22;67403;50.104;8.758;2023-02-28T08:32:45;1.30;99.90
28023;DHT22;67403;50.104;8.758;2023-02-28T08:35:12;1.50;99.90
28023;DHT22;67403;50.104;8.758;2023-02-28T08:37:39;1.60;99.90
28023;DHT22;67403;50.104;8.758;2023-02-28T08:40:09;1.70;99.90
28023;DHT22;67403;50.104;8.758;2023-02-28T08:42:36;1.80;99.90
28023;DHT22;67403;50.104;8.758;2023-02-28T08:45:04;1.80;99.90
28023;DHT22;67403;50.104;8.758;2023-02-28T08:47:31;1.80;99.90
28023;DHT22;67403;50.104;8.758;2023-02-28T08:49:58;1.90;99.90
28023;DHT22;67403;50.104;8.758;2023-02-28T08:52:25;2.10;99.90
28023;DHT22;67403;50.104;8.758;2023-02-28T08:54:52;2.00;99.90
28023;DHT22;67403;50.104;8.758;2023-02-28T08:57:20;2.00;99.90
28023;DHT22;67403;50.104;8.758;2023-02-28T08:59:47;2.00;99.90
28023;DHT22;67403;50.104;8.758;2023-02-28T09:02:14;2.10;99.90
28023;DHT22;67403;50.104;8.758;2023-02-28T09:04:41;2.10;99.90
28023;DHT22;67403;50.104;8.758;2023-02-28T09:07:11;2.10;99.90
28023;DHT22;67403;50.104;8.758;2023-02-28T09:09:38;2.20;99.90
28023;DHT22;67403;50.104;8.758;2023-02-28T09:12:20;2.40;99.90
28023;DHT22;67403;50.104;8.758;2023-02-28T09:14:47;2.50;99.90
28023;DHT22;67403;50.104;8.758;2023-02-28T09:17:14;2.50;99.90
28023;DHT22;67403;50.104;8.758;2023-02-28T09:19:41;2.50;99.90
28023;DHT22;67403;50.104;8.758;2023-02-28T09:22:08;2.60;99.90
28023;DHT22;67403;50.104;8.758;2023-02-28T09:24:35;2.60;99.90
28023;DHT22;67403;50.104;8.758;2023-02-28T09:27:03;2.60;99.90
28023;DHT22;67403;50.104;8.758;2023-02-28T09:29:33;2.60;99.90
28023;DHT22;67403;50.104;8.758;2023-02-28T09:32:00;2.70;99.90
28023;DHT22;67403;50.104;8.758;2023-02-28T09:34:28;2.70;99.90
28023;DHT22;67403;50.104;8.758;2023-02-28T09:36:56;2.70;99.90
28023;DHT22;67403;50.104;8.758;2023-02-28T09:39:23;2.70;99.90
28023;DHT22;67403;50.104;8.758;2023-02-28T09:41:53;2.80;99.90
28023;DHT22;67403;50.104;8.758;2023-02-28T09:44:27;2.80;99.90
28023;DHT22;67403;50.104;8.758;2023-02-28T09:46:59;2.50;99.90
28023;DHT22;67403;50.104;8.758;2023-02-28T09:49:33;2.60;99.90
28023;DHT22;67403;50.104;8.758;2023-02-28T09:52:03;2.70;99.90
28023;DHT22;67403;50.104;8.758;2023-02-28T09:54:32;2.80;99.90
28023;DHT22;67403;50.104;8.758;2023-02-28T09:57:04;2.80;99.90
28023;DHT22;67403;50.104;8.758;2023-02-28T09:59:40;2.90;99.90
28023;DHT22;67403;50.104;8.758;2023-02-28T10:02:21;2.90;99.90
28023;DHT22;67403;50.104;8.758;2023-02-28T10:04:53;3.00;99.90
28023;DHT22;67403;50.104;8.758;2023-02-28T10:07:40;3.40;99.90
28023;DHT22;67403;50.104;8.758;2023-02-28T10:10:19;3.80;99.90
28023;DHT22;67403;50.104;8.758;2023-02-28T10:12:52;3.80;99.90
28023;DHT22;67403;50.104;8.758;2023-02-28T10:15:22;3.70;99.90
28023;DHT22;67403;50.104;8.758;2023-02-28T10:17:54;3.60;99.90
28023;DHT22;67403;50.104;8.758;2023-02-28T10:20:24;3.50;99.90
28023;DHT22;67403;50.104;8.758;2023-02-28T10:22:58;3.40;99.90
28023;DHT22;67403;50.104;8.758;2023-02-28T10:25:33;3.50;99.90
28023;DHT22;67403;50.104;8.758;2023-02-28T10:28:05;3.80;99.90
28023;DHT22;67403;50.104;8.758;2023-02-28T10:30:36;3.70;99.90
28023;DHT22;67403;50.104;8.758;2023-02-28T10:33:05;3.60;99.90
28023;DHT22;67403;50.104;8.758;2023-02-28T10:35:32;3.80;99.90
28023;DHT22;67403;50.104;8.758;2023-02-28T10:38:02;3.60;99.90
28023;DHT22;67403;50.104;8.758;2023-02-28T10:40:36;3.40;99.90
28023;DHT22;67403;50.104;8.758;2023-02-28T10:43:05;3.40;99.90
28023;DHT22;67403;50.104;8.758;2023-02-28T10:45:33;3.40;99.90
28023;DHT22;67403;50.104;8.758;2023-02-28T10:48:06;3.60;99.90
28023;DHT22;67403;50.104;8.758;2023-02-28T10:50:37;3.50;99.90
28023;DHT22;67403;50.104;8.758;2023-02-28T10:53:22;3.70;99.90
28023;DHT22;67403;50.104;8.758;2023-02-28T10:55:57;4.50;99.90
28023;DHT22;67403;50.104;8.758;2023-02-28T10:58:26;5.60;99.90
28023;DHT22;67403;50.104;8.758;2023-02-28T11:00:54;5.00;98.60
28023;DHT22;67403;50.104;8.758;2023-02-28T11:03:30;5.20;99.00
28023;DHT22;67403;50.104;8.758;2023-02-28T11:05:58;5.50;98.80
28023;DHT22;67403;50.104;8.758;2023-02-28T11:08:30;5.80;97.20
28023;DHT22;67403;50.104;8.758;2023-02-28T11:10:59;6.10;95.90
28023;DHT22;67403;50.104;8.758;2023-02-28T11:13:32;6.30;94.90
28023;DHT22;67403;50.104;8.758;2023-02-28T11:16:02;7.70;92.30
28023;DHT22;67403;50.104;8.758;2023-02-28T11:18:37;6.70;91.00
28023;DHT22;67403;50.104;8.758;2023-02-28T11:21:06;8.80;88.30
28023;DHT22;67403;50.104;8.758;2023-02-28T11:23:35;10.10;81.70
28023;DHT22;67403;50.104;8.758;2023-02-28T11:26:04;10.80;74.10
28023;DHT22;67403;50.104;8.758;2023-02-28T11:28:36;11.10;67.90
28023;DHT22;67403;50.104;8.758;2023-02-28T11:31:14;10.80;67.90
28023;DHT22;67403;50.104;8.758;2023-02-28T11:33:45;12.00;61.80
28023;DHT22;67403;50.104;8.758;2023-02-28T11:36:17;12.00;62.20
28023;DHT22;67403;50.104;8.758;2023-02-28T11:38:45;10.40;59.90
28023;DHT22;67403;50.104;8.758;2023-02-28T11:41:36;10.40;61.60
28023;DHT22;67403;50.104;8.758;2023-02-28T11:44:19;10.60;60.50
28023;DHT22;67403;50.104;8.758;2023-02-28T11:46:52;10.20;62.60
28023;DHT22;67403;50.104;8.758;2023-02-28T11:49:32;10.90;61.70
28023;DHT22;67403;50.104;8.758;2023-02-28T11:52:05;10.30;61.30
28023;DHT22;67403;50.104;8.758;2023-02-28T11:54:53;8.50;66.80
28023;DHT22;67403;50.104;8.758;2023-02-28T11:57:33;10.40;62.10
28023;DHT22;67403;50.104;8.758;2023-02-28T12:00:08;10.80;60.50
28023;DHT22;67403;50.104;8.758;2023-02-28T12:02:48;10.40;59.10
28023;DHT22;67403;50.104;8.758;2023-02-28T12:05:28;10.30;59.10
28023;DHT22;67403;50.104;8.758;2023-02-28T12:08:04;10.70;57.70
28023;DHT22;67403;50.104;8.758;2023-02-28T12:10:36;10.70;59.20
28023;DHT22;67403;50.104;8.758;2023-02-28T12:13:16;9.20;60.60
28023;DHT22;67403;50.104;8.758;2023-02-28T12:16:04;8.70;63.40
28023;DHT22;67403;50.104;8.758;2023-02-28T12:21:34;10.00;60.20
28023;DHT22;67403;50.104;8.758;2023-02-28T12:27:12;11.90;57.50
28023;DHT22;67403;50.104;8.758;2023-02-28T12:29:45;11.40;56.90
28023;DHT22;67403;50.104;8.758;2023-02-28T12:32:18;11.60;56.20
28023;DHT22;67403;50.104;8.758;2023-02-28T12:34:50;12.00;55.10
28023;DHT22;67403;50.104;8.758;2023-02-28T12:37:24;13.90;53.10
28023;DHT22;67403;50.104;8.758;2023-02-28T12:39:55;14.10;51.00
28023;DHT22;67403;50.104;8.758;2023-02-28T12:42:28;12.00;52.90
28023;DHT22;67403;50.104;8.758;2023-02-28T12:44:59;10.20;56.30
28023;DHT22;67403;50.104;8.758;2023-02-28T12:47:27;9.40;56.70
28023;DHT22;67403;50.104;8.758;2023-02-28T12:49:58;10.50;56.80
28023;DHT22;67403;50.104;8.758;2023-02-28T12:52:34;9.40;57.70
28023;DHT22;67403;50.104;8.758;2023-02-28T12:55:05;10.30;59.20
28023;DHT22;67403;50.104;8.758;2023-02-28T12:57:38;10.30;58.30
28023;DHT22;67403;50.104;8.758;2023-02-28T13:00:12;11.40;57.20
28023;DHT22;67403;50.104;8.758;2023-02-28T13:02:54;11.30;56.40
28023;DHT22;67403;50.104;8.758;2023-02-28T13:05:50;12.70;54.50
28023;DHT22;67403;50.104;8.758;2023-02-28T13:11:28;10.60;56.60
28023;DHT22;67403;50.104;8.758;2023-02-28T13:14:00;10.30;56.10
28023;DHT22;67403;50.104;8.758;2023-02-28T13:16:54;11.60;55.50
28023;DHT22;67403;50.104;8.758;2023-02-28T13:19:22;10.20;57.20
28023;DHT22;67403;50.104;8.758;2023-02-28T13:21:51;11.70;55.50
28023;DHT22;67403;50.104;8.758;2023-02-28T13:24:42;13.30;52.70
28023;DHT22;67403;50.104;8.758;2023-02-28T13:27:22;11.40;54.30
28023;DHT22;67403;50.104;8.758;2023-02-28T13:29:51;10.60;56.00
28023;DHT22;67403;50.104;8.758;2023-02-28T13:32:37;11.30;56.50
28023;DHT22;67403;50.104;8.758;2023-02-28T13:35:38;11.90;56.00
28023;DHT22;67403;50.104;8.758;2023-02-28T13:38:25;12.30;53.70
28023;DHT22;67403;50.104;8.758;2023-02-28T13:44:03;10.90;56.80
28023;DHT22;67403;50.104;8.758;2023-02-28T13:46:31;10.30;56.50
28023;DHT22;67403;50.104;8.758;2023-02-28T13:49:19;10.90;56.60
28023;DHT22;67403;50.104;8.758;2023-02-28T13:51:47;9.80;57.90
28023;DHT22;67403;50.104;8.758;2023-02-28T13:54:31;11.10;57.10
28023;DHT22;67403;50.104;8.758;2023-02-28T13:57:10;10.60;56.30
28023;DHT22;67403;50.104;8.758;2023-02-28T13:59:47;10.90;55.90
28023;DHT22;67403;50.104;8.758;2023-02-28T14:02:38;10.60;56.90
28023;DHT22;67403;50.104;8.758;2023-02-28T14:05:13;11.50;55.90
28023;DHT22;67403;50.104;8.758;2023-02-28T14:07:45;11.80;55.20
28023;DHT22;67403;50.104;8.758;2023-02-28T14:10:23;11.70;55.30
28023;DHT22;67403;50.104;8.758;2023-02-28T14:12:56;11.60;55.40
28023;DHT22;67403;50.104;8.758;2023-02-28T14:15:49;11.80;54.60
28023;DHT22;67403;50.104;8.758;2023-02-28T14:18:25;10.60;55.80
28023;DHT22;67403;50.104;8.758;2023-02-28T14:20:56;11.00;56.10
28023;DHT22;67403;50.104;8.758;2023-02-28T14:23:42;10.70;56.20
28023;DHT22;67403;50.104;8.758;2023-02-28T14:26:20;11.40;55.90
28023;DHT22;67403;50.104;8.758;2023-02-28T14:31:53;10.00;57.20
28023;DHT22;67403;50.104;8.758;2023-02-28T14:34:31;10.10;56.70
28023;DHT22;67403;50.104;8.758;2023-02-28T14:37:03;9.00;60.10
28023;DHT22;67403;50.104;8.758;2023-02-28T14:39:31;9.20;60.10
28023;DHT22;67403;50.104;8.758;2023-02-28T14:41:59;10.80;57.90
28023;DHT22;67403;50.104;8.758;2023-02-28T14:44:29;10.30;58.30
28023;DHT22;67403;50.104;8.758;2023-02-28T14:47:00;11.00;57.70
28023;DHT22;67403;50.104;8.758;2023-02-28T14:49:32;10.00;58.50
28023;DHT22;67403;50.104;8.758;2023-02-28T14:52:06;10.40;58.70
28023;DHT22;67403;50.104;8.758;2023-02-28T14:54:35;10.40;57.80
28023;DHT22;67403;50.104;8.758;2023-02-28T14:57:03;8.60;60.40
28023;DHT22;67403;50.104;8.758;2023-02-28T14:59:32;8.50;63.00
28023;DHT22;67403;50.104;8.758;2023-02-28T15:02:21;7.80;65.80
28023;DHT22;67403;50.104;8.758;2023-02-28T15:04:55;7.40;66.60
28023;DHT22;67403;50.104;8.758;2023-02-28T15:07:23;7.00;69.40
28023;DHT22;67403;50.104;8.758;2023-02-28T15:10:08;6.90;70.90
28023;DHT22;67403;50.104;8.758;2023-02-28T15:12:35;6.50;72.50
28023;DHT22;67403;50.104;8.758;2023-02-28T15:15:04;6.40;74.40
28023;DHT22;67403;50.104;8.758;2023-02-28T15:17:34;6.50;74.20
28023;DHT22;67403;50.104;8.758;2023-02-28T15:20:02;6.60;74.30
28023;DHT22;67403;50.104;8.758;2023-02-28T15:22:31;6.70;75.00
28023;DHT22;67403;50.104;8.758;2023-02-28T15:25:02;6.90;74.30
28023;DHT22;67403;50.104;8.758;2023-02-28T15:27:33;6.60;74.50
28023;DHT22;67403;50.104;8.758;2023-02-28T15:30:11;6.30;75.10
28023;DHT22;67403;50.104;8.758;2023-02-28T15:32:41;6.30;74.90
28023;DHT22;67403;50.104;8.758;2023-02-28T15:35:19;5.80;77.20
28023;DHT22;67403;50.104;8.758;2023-02-28T15:37:48;5.60;80.10
28023;DHT22;67403;50.104;8.758;2023-02-28T15:40:26;5.60;80.70
28023;DHT22;67403;50.104;8.758;2023-02-28T15:43:03;5.40;82.10
28023;DHT22;67403;50.104;8.758;2023-02-28T15:45:36;5.20;83.20
28023;DHT22;67403;50.104;8.758;2023-02-28T15:48:15;5.30;84.30
28023;DHT22;67403;50.104;8.758;2023-02-28T15:50:42;5.00;83.80
28023;DHT22;67403;50.104;8.758;2023-02-28T15:53:14;5.00;85.80
28023;DHT22;67403;50.104;8.758;2023-02-28T15:55:42;4.90;86.40
28023;DHT22;67403;50.104;8.758;2023-02-28T15:58:11;5.00;87.20
28023;DHT22;67403;50.104;8.758;2023-02-28T16:00:39;5.10;87.90
28023;DHT22;67403;50.104;8.758;2023-02-28T16:03:25;5.00;88.70
28023;DHT22;67403;50.104;8.758;2023-02-28T16:06:24;4.90;89.30
28023;DHT22;67403;50.104;8.758;2023-02-28T16:08:52;5.10;89.20
28023;DHT22;67403;50.104;8.758;2023-02-28T16:11:20;4.80;90.00
28023;DHT22;67403;50.104;8.758;2023-02-28T16:13:48;4.70;90.70
28023;DHT22;67403;50.104;8.758;2023-02-28T16:16:17;4.60;91.00
28023;DHT22;67403;50.104;8.758;2023-02-28T16:18:46;4.60;91.50
28023;DHT22;67403;50.104;8.758;2023-02-28T16:21:13;4.70;91.40
28023;DHT22;67403;50.104;8.758;2023-02-28T16:23:40;4.80;91.30